Time;durP1;ratioP1;P1;durP2;ratioP2;P2;SDS_P1;SDS_P2;PMS_P1;PMS_P2;Temp;Humidity;BMP_temperature;BMP_pressure;BME280_temperature;BME280_humidity;BME280_pressure;Samples;Min_cycle;Max_cycle;Signal;HPM_P1;HPM_P2
2022/05/28 00:01:28;;;;;;;11.00;1.73;;;;;;;21.59;38.91;102305.63;5033751;28;20100;-71
2022/05/28 00:03:54;;;;;;;13.13;2.22;;;;;;;22.24;37.24;102290.09;5030739;28;20401;-72
2022/05/28 00:06:22;;;;;;;5.50;1.30;;;;;;;20.93;39.37;102292.63;5033365;28;20113;-72
2022/05/28 00:08:48;;;;;;;6.35;1.52;;;;;;;21.48;38.91;102300.63;5031339;28;20036;-71
2022/05/28 00:11:19;;;;;;;6.40;0.85;;;;;;;20.44;40.57;102290.47;5032909;28;20029;-74
2022/05/28 00:13:46;;;;;;;5.55;1.63;;;;;;;21.43;38.80;102298.13;5032277;28;20478;-71
2022/05/28 00:16:13;;;;;;;9.20;2.00;;;;;;;21.27;39.10;102291.56;5032450;28;20116;-72
2022/05/28 00:18:40;;;;;;;8.20;1.40;;;;;;;20.89;40.02;102286.50;5030145;28;20028;-72
2022/05/28 00:21:07;;;;;;;10.57;2.10;;;;;;;21.32;39.39;102290.50;5033335;28;20032;-72
2022/05/28 00:23:32;;;;;;;5.80;1.13;;;;;;;21.82;38.79;102283.56;5027244;28;20018;-72
2022/05/28 00:25:57;;;;;;;14.68;1.80;;;;;;;21.87;38.86;102281.59;5012764;28;20378;-72
2022/05/28 00:28:23;;;;;;;8.38;1.30;;;;;;;20.44;41.45;102285.16;5024192;28;20033;-71
2022/05/28 00:30:49;;;;;;;11.35;1.30;;;;;;;20.86;40.83;102291.06;5031683;28;20021;-72
2022/05/28 00:33:14;;;;;;;12.15;1.98;;;;;;;21.86;39.50;102275.41;5032498;28;20032;-72
2022/05/28 00:35:40;;;;;;;11.48;1.38;;;;;;;21.12;40.55;102282.28;5031672;28;20032;-72
2022/05/28 00:38:06;;;;;;;6.50;1.23;;;;;;;21.25;40.40;102280.94;5063153;28;20152;-72
2022/05/28 00:40:31;;;;;;;8.07;1.27;;;;;;;20.31;43.04;102267.81;5029625;28;20025;-72
2022/05/28 00:42:59;;;;;;;8.93;1.30;;;;;;;21.31;40.22;102269.28;5031718;28;20511;-71
2022/05/28 00:45:25;;;;;;;6.47;1.30;;;;;;;20.29;42.49;102266.97;5031439;28;20112;-72
2022/05/28 00:47:55;;;;;;;8.68;1.48;;;;;;;21.22;40.80;102277.53;5031901;28;20553;-71
2022/05/28 00:50:21;;;;;;;9.10;1.38;;;;;;;20.79;41.18;102279.75;5031667;28;20025;-72
2022/05/28 00:52:47;;;;;;;10.13;2.30;;;;;;;21.08;40.87;102286.81;5029768;28;20022;-72
2022/05/28 00:55:14;;;;;;;10.27;1.60;;;;;;;21.05;40.91;102286.94;5029233;28;20037;-72
2022/05/28 00:57:41;;;;;;;9.15;1.20;;;;;;;20.25;42.39;102299.84;5032509;28;20048;-72
2022/05/28 01:00:10;;;;;;;10.55;1.65;;;;;;;20.78;41.77;102300.13;5031211;28;20101;-72
2022/05/28 01:02:57;;;;;;;8.35;1.27;;;;;;;21.38;40.72;102289.44;5031777;28;20545;-71
2022/05/28 01:05:32;;;;;;;12.15;1.40;;;;;;;20.93;41.64;102288.16;5031313;28;20025;-72
2022/05/28 01:08:15;;;;;;;10.43;1.85;;;;;;;21.18;41.09;102282.97;5031454;28;20033;-71
2022/05/28 01:10:52;;;;;;;3.95;1.48;;;;;;;21.60;40.26;102289.63;5029636;28;20029;-71
2022/05/28 01:13:43;;;;;;;9.32;1.50;;;;;;;21.62;40.50;102281.56;5029489;28;20037;-72
2022/05/28 01:16:19;;;;;;;9.80;1.70;;;;;;;20.77;42.28;102282.47;5030288;28;20614;-71
2022/05/28 01:18:57;;;;;;;11.68;2.13;;;;;;;21.29;40.90;102285.25;5032205;28;20049;-72
2022/05/28 01:21:37;;;;;;;6.43;1.40;;;;;;;21.30;41.07;102286.16;5028991;28;20037;-72
2022/05/28 01:24:09;;;;;;;11.90;1.70;;;;;;;20.56;43.17;102288.38;5031716;28;20508;-72
2022/05/28 01:26:50;;;;;;;;;;;;;;;20.86;42.30;102288.41;5031134;28;20029;-72
2022/05/28 01:29:18;;;;;;;12.35;1.83;;;;;;;21.58;40.81;102287.94;5030388;28;20707;-72
2022/05/28 01:31:46;;;;;;;10.48;2.67;;;;;;;20.65;42.94;102291.63;5032075;28;20025;-72
2022/05/28 01:34:14;;;;;;;8.90;1.80;;;;;;;20.97;42.20;102294.25;5030819;28;20041;-72
2022/05/28 01:36:41;;;;;;;10.82;1.50;;;;;;;20.95;42.88;102290.78;5029917;28;20024;-72
2022/05/28 01:39:07;;;;;;;13.27;1.77;;;;;;;21.05;42.46;102281.59;5027831;28;20037;-72
2022/05/28 01:41:35;;;;;;;8.85;2.50;;;;;;;21.31;42.16;102277.25;5029897;28;20036;-72
2022/05/28 01:44:02;;;;;;;11.57;1.75;;;;;;;21.64;41.16;102275.28;5031108;28;20051;-72
2022/05/28 01:46:29;;;;;;;11.27;1.80;;;;;;;21.32;41.63;102279.88;5030512;28;20425;-72
2022/05/28 01:48:56;;;;;;;18.75;1.95;;;;;;;21.31;41.70;102277.25;5031251;28;20033;-72
2022/05/28 01:51:32;;;;;;;14.50;2.50;;;;;;;20.49;43.65;102277.91;5030692;28;20569;-72
2022/05/28 01:54:08;;;;;;;7.57;1.38;;;;;;;21.15;42.60;102274.22;5029541;28;20049;-72
2022/05/28 01:56:42;;;;;;;8.60;2.13;;;;;;;21.13;42.51;102273.38;5029210;28;20036;-72
2022/05/28 01:59:07;;;;;;;11.93;1.90;;;;;;;21.17;42.24;102278.56;5030314;28;20026;-72
2022/05/28 02:01:33;;;;;;;18.63;2.17;;;;;;;21.58;41.42;102269.31;5030452;28;20393;-72
2022/05/28 02:04:04;;;;;;;12.23;1.93;;;;;;;21.94;40.68;102268.94;5028951;28;20116;-72
2022/05/28 02:06:29;;;;;;;10.75;2.30;;;;;;;21.65;41.09;102266.41;5029611;28;20390;-72
2022/05/28 02:08:55;;;;;;;17.67;3.83;;;;;;;21.55;41.51;102272.06;5060805;28;20031;-72
2022/05/28 02:11:51;;;;;;;19.13;4.82;;;;;;;21.68;41.35;102266.28;5030255;28;20120;-72
2022/05/28 02:14:31;;;;;;;20.85;7.22;;;;;;;21.66;41.24;102267.25;5030240;28;20052;-72
2022/05/28 02:17:19;;;;;;;22.48;10.52;;;;;;;21.54;41.39;102275.66;5028782;28;20146;-72
2022/05/28 02:19:57;;;;;;;30.67;17.77;;;;;;;21.30;42.07;102268.38;5056548;28;20025;-72
2022/05/28 02:22:48;;;;;;;38.63;22.15;;;;;;;20.83;42.86;102271.63;5030300;28;20473;-72
2022/05/28 02:25:19;;;;;;;48.30;23.98;;;;;;;20.42;44.01;102265.72;5028251;28;20057;-72
2022/05/28 02:27:47;;;;;;;47.72;19.65;;;;;;;21.04;42.81;102269.22;5062085;28;20052;-72
2022/05/28 02:30:14;;;;;;;32.60;16.98;;;;;;;20.84;42.82;102268.06;5055432;28;20533;-72
2022/05/28 02:32:39;;;;;;;37.25;13.68;;;;;;;20.43;43.41;102267.47;5030867;28;20083;-72
2022/05/28 02:35:06;;;;;;;26.95;10.27;;;;;;;20.61;43.31;102265.22;5033214;28;20579;-72
2022/05/28 02:37:31;;;;;;;24.20;8.07;;;;;;;20.87;42.56;102263.56;5035298;28;20059;-72
2022/05/28 02:39:57;;;;;;;25.03;5.93;;;;;;;20.39;43.89;102264.94;5033092;28;20040;-72
2022/05/28 02:42:23;;;;;;;21.97;5.60;;;;;;;20.74;43.08;102261.28;5034279;28;20031;-72
2022/05/28 02:44:49;;;;;;;23.50;4.80;;;;;;;20.90;42.49;102250.19;5034313;28;20021;-72
2022/05/28 02:47:14;;;;;;;17.73;3.03;;;;;;;20.91;42.48;102259.88;5033684;28;20040;-72
2022/05/28 02:49:40;;;;;;;11.38;2.53;;;;;;;20.60;43.30;102255.50;5032666;28;20056;-72
2022/05/28 02:52:06;;;;;;;14.00;2.23;;;;;;;20.63;42.74;102258.03;5034210;28;20083;-72
2022/05/28 02:54:32;;;;;;;13.57;2.90;;;;;;;20.99;42.26;102253.44;5031907;28;20056;-72
2022/05/28 02:56:58;;;;;;;15.32;2.00;;;;;;;20.63;42.42;102256.25;5034834;28;20079;-73
2022/05/28 02:59:23;;;;;;;19.43;1.87;;;;;;;20.36;43.06;102252.66;5033978;28;20429;-72
2022/05/28 03:01:50;;;;;;;6.40;1.20;;;;;;;20.13;44.02;102261.25;5032314;28;20470;-72
2022/05/28 03:04:15;;;;;;;10.13;1.87;;;;;;;20.41;43.84;102263.97;5031441;28;20036;-72
2022/05/28 03:06:41;;;;;;;11.57;1.70;;;;;;;20.78;42.37;102262.91;5033432;28;20029;-71
2022/05/28 03:09:08;;;;;;;10.40;2.03;;;;;;;20.60;42.63;102268.78;5033166;28;20056;-72
2022/05/28 03:11:35;;;;;;;8.70;1.20;;;;;;;19.47;44.98;102269.97;5032362;28;20029;-72
2022/05/28 03:14:00;;;;;;;9.53;1.60;;;;;;;20.08;43.22;102261.34;5033539;28;20040;-72
2022/05/28 03:16:26;;;;;;;9.57;1.90;;;;;;;20.57;42.37;102269.72;5033132;28;20561;-72
2022/05/28 03:18:52;;;;;;;7.80;2.27;;;;;;;20.42;42.21;102263.06;5034128;28;20044;-73
2022/05/28 03:21:18;;;;;;;11.03;1.87;;;;;;;20.58;41.86;102273.25;5031956;28;20481;-72
2022/05/28 03:23:47;;;;;;;10.70;2.13;;;;;;;20.21;42.71;102271.63;5033499;28;20018;-72
2022/05/28 03:26:18;;;;;;;7.97;1.33;;;;;;;20.07;42.34;102277.31;5034284;28;20052;-72
2022/05/28 03:28:43;;;;;;;5.37;1.40;;;;;;;20.49;41.42;102277.91;5032481;28;20057;-73
2022/05/28 03:31:08;;;;;;;9.53;1.70;;;;;;;20.10;41.46;102271.94;5032952;28;20068;-72
2022/05/28 03:33:34;;;;;;;7.10;1.63;;;;;;;20.42;41.09;102281.66;5031592;28;20041;-72
2022/05/28 03:35:59;;;;;;;6.90;1.40;;;;;;;20.42;41.02;102281.66;5012563;28;20030;-72
2022/05/28 03:38:24;;;;;;;7.53;1.20;;;;;;;19.99;41.63;102282.88;5021018;28;20482;-72
2022/05/28 03:40:50;;;;;;;8.20;0.90;;;;;;;20.03;41.64;102279.22;5032602;28;20034;-72
2022/05/28 03:43:15;;;;;;;6.57;1.13;;;;;;;19.66;42.37;102285.44;5031539;28;20056;-73
2022/05/28 03:45:41;;;;;;;7.07;1.00;;;;;;;19.82;41.91;102284.19;5033504;28;20029;-72
2022/05/28 03:48:09;;;;;;;3.67;1.07;;;;;;;20.15;41.47;102289.50;5029432;28;20425;-72
2022/05/28 03:50:35;;;;;;;3.50;1.00;;;;;;;19.91;41.54;102288.34;5030796;28;20477;-72
2022/05/28 03:53:00;;;;;;;7.60;1.17;;;;;;;20.32;41.14;102280.19;5033303;28;20040;-72
2022/05/28 03:55:26;;;;;;;3.83;0.83;;;;;;;20.21;40.76;102280.50;5025141;28;20095;-72
2022/05/28 03:57:51;;;;;;;10.90;1.03;;;;;;;20.08;40.79;102293.22;5013535;28;20454;-72
2022/05/28 04:00:17;;;;;;;4.90;0.93;;;;;;;20.54;39.82;102287.53;5012660;28;20466;-72
2022/05/28 04:02:43;;;;;;;4.70;1.63;;;;;;;19.86;41.15;102292.91;5019320;28;20056;-73
2022/05/28 04:05:09;;;;;;;9.00;1.33;;;;;;;20.00;40.70;102285.47;5031851;28;20056;-72
2022/05/28 04:07:35;;;;;;;4.23;1.07;;;;;;;20.15;40.54;102297.47;5065576;28;20064;-72
2022/05/28 04:10:01;;;;;;;6.97;0.77;;;;;;;19.74;41.28;102293.19;5032272;28;20493;-72
2022/05/28 04:12:26;;;;;;;2.33;1.03;;;;;;;20.14;40.06;102293.06;5064081;28;20025;-72
2022/05/28 04:14:51;;;;;;;6.37;1.10;;;;;;;20.35;39.83;102293.38;5033470;28;20025;-72
2022/05/28 04:17:17;;;;;;;9.53;1.00;;;;;;;19.78;40.74;102294.84;5029857;28;20071;-72
2022/05/28 04:19:42;;;;;;;7.70;0.83;;;;;;;19.60;40.81;102301.50;5031173;28;20120;-72
2022/05/28 04:22:08;;;;;;;8.63;1.10;;;;;;;19.96;40.48;102301.50;5031429;28;20018;-72
2022/05/28 04:24:33;;;;;;;4.80;0.80;;;;;;;20.03;39.66;102300.44;5064508;28;20469;-72
2022/05/28 04:26:59;;;;;;;7.20;1.30;;;;;;;20.77;38.65;102303.72;5031993;28;20025;-72
2022/05/28 04:29:24;;;;;;;4.13;0.80;;;;;;;20.47;39.06;102298.34;5031103;28;20489;-72
2022/05/28 04:31:49;;;;;;;5.23;0.67;;;;;;;20.44;39.09;102295.78;5029762;28;20488;-71
2022/05/28 04:34:15;;;;;;;7.10;0.70;;;;;;;20.13;39.40;102307.22;5031959;28;20033;-72
2022/05/28 04:36:40;;;;;;;7.73;0.90;;;;;;;20.91;38.19;102305.06;5031550;28;20036;-72
2022/05/28 04:39:06;;;;;;;6.77;0.77;;;;;;;19.89;39.90;102302.56;5030669;28;20021;-72
2022/05/28 04:41:31;;;;;;;4.22;0.77;;;;;;;20.52;38.33;102298.19;5031682;28;20398;-72
2022/05/28 04:43:56;;;;;;;3.85;0.80;;;;;;;21.19;37.18;102308.59;5031585;28;20029;-73
2022/05/28 04:46:22;;;;;;;5.90;0.90;;;;;;;21.45;36.93;102303.41;5029987;28;20037;-72
2022/05/28 04:48:47;;;;;;;7.55;0.93;;;;;;;22.03;35.74;102314.75;5031071;28;20026;-72
2022/05/28 04:51:12;;;;;;;3.83;0.70;;;;;;;21.55;35.83;102311.97;5030997;28;20529;-74
2022/05/28 04:53:38;;;;;;;3.50;0.80;;;;;;;21.84;35.69;102303.88;5032107;28;20036;-72
2022/05/28 04:56:04;;;;;;;8.25;0.93;;;;;;;20.97;36.54;102312.88;5031057;28;20021;-72
2022/05/28 04:58:30;;;;;;;2.40;0.60;;;;;;;19.93;38.54;102310.41;5030636;28;20124;-73
2022/05/28 05:00:56;;;;;;;7.75;1.08;;;;;;;20.31;38.83;102305.00;5030407;28;20112;-72
2022/05/28 05:03:22;;;;;;;6.40;0.93;;;;;;;20.30;38.51;102319.19;5032677;28;20386;-71
2022/05/28 05:05:47;;;;;;;3.60;0.80;;;;;;;20.05;38.76;102314.53;5029649;28;20027;-72
2022/05/28 05:08:13;;;;;;;5.65;0.90;;;;;;;20.24;38.73;102314.06;5030712;28;20029;-72
2022/05/28 05:10:39;;;;;;;6.90;0.75;;;;;;;20.83;38.42;102318.59;5031120;28;20108;-73
2022/05/28 05:13:05;;;;;;;8.65;0.95;;;;;;;20.82;38.30;102323.03;5029541;28;20064;-72
2022/05/28 05:15:31;;;;;;;8.98;1.05;;;;;;;19.82;39.93;102329.28;5032947;28;20029;-73
2022/05/28 05:17:57;;;;;;;5.28;0.60;;;;;;;20.80;38.70;102324.88;5032230;28;20390;-72
2022/05/28 05:20:22;;;;;;;7.03;0.90;;;;;;;20.63;38.63;102316.47;5030121;28;20025;-72
2022/05/28 05:22:47;;;;;;;3.38;0.80;;;;;;;21.27;37.99;102328.78;5029340;28;20477;-72
2022/05/28 05:25:14;;;;;;;2.85;0.73;;;;;;;20.87;38.10;102325.56;5030847;28;20037;-72
2022/05/28 05:27:39;;;;;;;5.75;0.85;;;;;;;20.41;38.50;102333.03;5030556;28;20374;-72
2022/05/28 05:30:06;;;;;;;5.13;1.95;;;;;;;20.43;39.07;102325.91;5030424;28;20041;-72
2022/05/28 05:32:31;;;;;;;4.03;0.80;;;;;;;20.40;38.20;102336.63;5029752;28;20040;-72
2022/05/28 05:34:57;;;;;;;3.55;0.73;;;;;;;20.14;38.41;102334.63;5030048;28;20025;-71
2022/05/28 05:37:22;;;;;;;1.52;0.60;;;;;;;20.63;37.79;102327.13;5030499;28;20048;-73
2022/05/28 05:39:48;;;;;;;5.82;1.10;;;;;;;19.66;39.03;102343.78;5027732;28;20068;-71
2022/05/28 05:42:14;;;;;;;8.15;0.93;;;;;;;20.10;38.23;102341.81;5029511;28;20025;-73
2022/05/28 05:44:39;;;;;;;8.10;1.95;;;;;;;20.69;37.10;102337.59;5031206;28;20040;-72
2022/05/28 05:47:06;;;;;;;5.15;0.80;;;;;;;20.75;37.32;102342.72;5031675;28;20464;-73
2022/05/28 05:49:31;;;;;;;7.75;0.70;;;;;;;20.45;37.99;102342.66;5028149;28;20561;-73
2022/05/28 05:51:57;;;;;;;4.55;1.15;;;;;;;21.11;37.10;102350.50;5029979;28;20025;-72
2022/05/28 05:54:25;;;;;;;8.40;1.00;;;;;;;20.38;38.63;102348.19;5030290;28;20128;-73
2022/05/28 05:56:54;;;;;;;3.30;0.85;;;;;;;20.24;38.81;102356.53;5029056;28;20033;-73
2022/05/28 05:59:20;;;;;;;8.77;0.80;;;;;;;20.20;37.79;102344.25;5033499;28;20389;-71
2022/05/28 06:01:46;;;;;;;9.45;0.95;;;;;;;20.09;36.95;102348.03;5031661;28;20111;-73
2022/05/28 06:04:11;;;;;;;11.60;1.23;;;;;;;19.97;37.19;102353.66;5028864;28;20481;-72
2022/05/28 06:06:37;;;;;;;7.80;0.80;;;;;;;20.46;37.20;102351.50;5029015;28;20095;-73
2022/05/28 06:09:03;;;;;;;8.18;0.93;;;;;;;20.08;37.50;102343.63;5034670;28;20029;-73
2022/05/28 06:11:28;;;;;;;4.55;0.70;;;;;;;20.84;36.66;102350.44;5035013;28;20104;-74
2022/05/28 06:13:53;;;;;;;4.68;0.70;;;;;;;20.51;37.00;102350.47;5034843;28;20033;-73
2022/05/28 06:16:19;;;;;;;5.40;1.27;;;;;;;20.50;37.41;102358.47;5041649;28;20135;-73
2022/05/28 06:18:44;;;;;;;3.63;0.80;;;;;;;20.37;37.19;102352.59;5035777;28;20029;-73
2022/05/28 06:21:11;;;;;;;3.78;0.82;;;;;;;21.74;34.88;102355.66;5021497;28;20036;-74
2022/05/28 06:23:38;;;;;;;3.10;0.90;;;;;;;22.84;33.39;102352.69;5036364;28;20029;-73
2022/05/28 06:26:04;;;;;;;4.35;0.70;;;;;;;22.59;33.92;102366.09;5034194;28;20504;-71
2022/05/28 06:28:31;;;;;;;3.17;0.77;;;;;;;21.89;34.71;102358.75;5032929;28;20448;-73
2022/05/28 06:31:05;;;;;;;3.22;0.70;;;;;;;24.01;31.78;102362.34;5016807;28;20030;-72
2022/05/28 06:33:31;;;;;;;5.30;0.73;;;;;;;24.25;31.21;102356.88;5033651;28;20034;-72
2022/05/28 06:35:57;;;;;;;4.80;0.70;;;;;;;24.74;30.11;102354.69;5035294;28;20139;-72
2022/05/28 06:38:23;;;;;;;5.25;0.75;;;;;;;25.82;28.98;102359.38;5029019;28;20113;-73
2022/05/28 06:40:49;;;;;;;7.00;0.90;;;;;;;25.65;28.95;102354.88;5063538;28;20097;-72
2022/05/28 06:43:14;;;;;;;4.70;0.65;;;;;;;25.11;28.99;102358.31;5033622;28;20028;-72
2022/05/28 06:45:40;;;;;;;2.88;0.50;;;;;;;23.06;32.45;102367.88;5032826;28;20154;-73
2022/05/28 06:48:05;;;;;;;4.07;1.10;;;;;;;24.62;30.80;102360.59;5025145;28;20037;-71
2022/05/28 06:53:15;;;;;;;4.13;0.80;;;;;;;24.97;29.92;102360.78;5038485;28;20055;-72
2022/05/28 06:55:40;;;;;;;4.30;0.85;;;;;;;22.97;32.43;102370.91;5034789;28;20108;-72
2022/05/28 06:58:07;;;;;;;7.55;0.90;;;;;;;24.29;31.44;102374.50;5028512;28;20029;-73
2022/05/28 07:00:34;;;;;;;5.75;0.80;;;;;;;24.91;30.34;102372.66;5030020;28;20029;-72
2022/05/28 07:03:00;;;;;;;6.32;0.93;;;;;;;26.03;28.43;102368.16;5035217;28;20028;-72
2022/05/28 07:05:28;;;;;;;5.53;1.10;;;;;;;24.86;29.81;102375.50;5034835;28;20029;-72
2022/05/28 07:07:53;;;;;;;5.57;1.05;;;;;;;25.19;29.58;102374.88;5031338;28;20053;-73
2022/05/28 07:10:19;;;;;;;4.72;1.52;;;;;;;25.46;29.35;102377.22;5026151;28;20115;-73
2022/05/28 07:12:44;;;;;;;6.93;1.20;;;;;;;25.34;29.51;102381.34;5032900;28;20029;-73
2022/05/28 07:15:10;;;;;;;8.73;0.90;;;;;;;26.50;27.63;102378.22;5030957;28;20036;-73
2022/05/28 07:17:36;;;;;;;3.60;1.20;;;;;;;26.88;27.62;102372.59;5031316;28;20087;-72
2022/05/28 07:20:01;;;;;;;4.20;1.23;;;;;;;27.49;26.82;102370.13;5032679;28;20021;-73
2022/05/28 07:22:28;;;;;;;5.20;0.80;;;;;;;30.16;23.56;102363.25;5033864;28;20440;-72
2022/05/28 07:24:53;;;;;;;3.85;1.10;;;;;;;29.40;23.58;102375.50;5032404;28;20813;-73
2022/05/28 07:27:19;;;;;;;3.00;0.63;;;;;;;29.06;23.08;102377.72;5030440;28;20033;-74
2022/05/28 07:29:44;;;;;;;4.57;0.98;;;;;;;27.58;23.99;102369.59;5026103;28;20049;-72
2022/05/28 07:32:09;;;;;;;4.65;0.80;;;;;;;27.20;24.60;102380.69;5031455;28;20087;-71
2022/05/28 07:34:35;;;;;;;3.88;0.55;;;;;;;27.74;24.72;102382.13;5031650;28;20071;-73
2022/05/28 07:37:01;;;;;;;2.22;0.68;;;;;;;27.22;24.25;102385.97;5011238;28;20046;-73
2022/05/28 07:39:27;;;;;;;4.80;0.85;;;;;;;26.54;24.46;102382.47;5030711;28;20056;-73
2022/05/28 07:41:52;;;;;;;5.38;1.23;;;;;;;28.22;23.60;102381.97;5032716;28;20021;-72
2022/05/28 07:44:18;;;;;;;5.63;0.98;;;;;;;30.55;21.89;102374.91;5033676;28;20029;-73
2022/05/28 07:46:44;;;;;;;5.38;1.52;;;;;;;29.78;21.91;102380.19;5032954;28;20013;-72
2022/05/28 07:49:09;;;;;;;7.00;1.05;;;;;;;27.33;24.41;102390.72;5027361;28;20120;-73
2022/05/28 07:51:35;;;;;;;6.30;0.98;;;;;;;26.47;25.88;102391.75;5031862;28;20399;-74
2022/05/28 07:54:02;;;;;;;5.80;1.10;;;;;;;25.04;26.88;102394.31;5030395;28;20120;-72
2022/05/28 07:56:27;;;;;;;6.25;1.02;;;;;;;24.82;27.97;102392.63;5031602;28;20029;-74
2022/05/28 07:58:54;;;;;;;5.88;1.33;;;;;;;23.73;29.31;102392.84;5032621;28;20044;-73
2022/05/28 08:01:23;;;;;;;7.32;1.58;;;;;;;22.63;31.96;102394.34;5027844;28;20042;-72
2022/05/28 08:03:49;;;;;;;7.38;1.10;;;;;;;22.10;32.80;102399.75;5031661;28;20385;-72
2022/05/28 08:06:15;;;;;;;13.13;1.30;;;;;;;24.27;29.02;102392.41;5033874;28;20033;-72
2022/05/28 08:08:41;;;;;;;6.50;1.17;;;;;;;25.37;28.16;102391.03;5033753;28;20041;-72
2022/05/28 08:11:07;;;;;;;4.90;1.17;;;;;;;25.91;26.58;102386.56;5031607;28;20041;-73
2022/05/28 08:13:32;;;;;;;4.63;1.08;;;;;;;26.10;26.95;102393.69;5027719;28;20485;-74
2022/05/28 08:16:00;;;;;;;4.38;0.90;;;;;;;27.75;25.70;102383.84;5029260;28;20030;-71
2022/05/28 08:18:26;;;;;;;8.85;1.30;;;;;;;29.88;24.42;102375.06;5034785;28;20037;-72
2022/05/28 08:23:38;;;;;;;5.15;1.25;;;;;;;29.10;23.36;102379.25;5051411;28;20040;-72
2022/05/28 08:26:04;;;;;;;5.53;1.08;;;;;;;29.07;22.72;102368.66;5028364;28;20044;-71
2022/05/28 08:28:30;;;;;;;5.95;0.77;;;;;;;25.99;25.61;102382.63;5034232;28;20045;-71
2022/05/28 08:30:55;;;;;;;5.32;0.82;;;;;;;24.99;27.02;102385.66;5025949;28;20038;-71
2022/05/28 08:33:21;;;;;;;6.18;0.85;;;;;;;24.82;27.60;102395.31;5031755;28;20021;-72
2022/05/28 08:35:50;;;;;;;3.10;0.90;;;;;;;25.38;27.57;102406.16;5032693;28;20030;-71
2022/05/28 08:38:18;;;;;;;6.22;1.10;;;;;;;26.74;25.32;102385.91;5014603;28;20458;-72
2022/05/28 08:40:55;;;;;;;6.88;0.90;;;;;;;28.02;22.80;102385.91;5027335;28;20033;-71
2022/05/28 08:43:23;;;;;;;6.07;1.08;;;;;;;26.77;22.77;102388.41;5033052;28;20029;-70
2022/05/28 08:45:50;;;;;;;7.10;1.35;;;;;;;28.57;21.85;102381.66;5029432;28;20044;-71
2022/05/28 08:48:34;;;;;;;3.75;0.90;;;;;;;29.69;22.58;102386.19;5032273;28;20664;-73
2022/05/28 08:51:18;;;;;;;2.22;1.02;;;;;;;29.91;20.48;102377.53;5029009;28;20549;-72
2022/05/28 08:54:08;;;;;;;4.72;1.05;;;;;;;27.04;23.56;102383.34;5034271;28;20030;-72
2022/05/28 08:56:36;;;;;;;3.95;0.60;;;;;;;26.33;24.29;102402.34;5031559;28;20378;-72
2022/05/28 08:59:16;;;;;;;3.80;0.90;;;;;;;26.02;24.57;102398.56;5032068;28;20509;-70
2022/05/28 09:01:44;;;;;;;7.35;1.48;;;;;;;25.35;25.74;102393.78;5031209;28;20033;-70
2022/05/28 09:04:20;;;;;;;4.72;1.15;;;;;;;26.11;25.15;102392.75;5031731;28;20025;-70
2022/05/28 09:06:53;;;;;;;11.25;1.30;;;;;;;25.01;25.19;102383.78;5030934;28;20589;-70
2022/05/28 09:09:30;;;;;;;8.93;1.17;;;;;;;25.07;25.30;102394.19;5026960;28;20033;-70
2022/05/28 09:12:04;;;;;;;7.22;0.93;;;;;;;27.89;23.26;102391.97;5040233;28;20480;-69
2022/05/28 09:14:38;;;;;;;7.80;0.95;;;;;;;27.90;22.91;102398.19;5055235;28;20040;-70
2022/05/28 09:17:36;;;;;;;7.72;1.42;;;;;;;27.41;23.30;102396.56;5021127;28;20065;-70
2022/05/28 09:20:07;;;;;;;5.60;1.10;;;;;;;27.20;23.28;102394.09;5020148;28;20056;-71
2022/05/28 09:22:32;;;;;;;2.70;0.95;;;;;;;28.48;22.46;102388.47;5031593;28;20052;-71
2022/05/28 09:24:57;;;;;;;2.90;0.75;;;;;;;29.15;21.48;102387.00;5030811;28;20545;-71
2022/05/28 09:27:56;;;;;;;7.55;1.15;;;;;;;28.42;22.42;102388.84;5031041;28;20029;-71
2022/05/28 09:30:45;;;;;;;5.43;0.85;;;;;;;27.18;23.55;102396.00;5031350;28;20183;-71
2022/05/28 09:33:47;;;;;;;7.93;1.00;;;;;;;30.15;20.73;102396.56;5019919;28;20502;-71
2022/05/28 09:36:40;;;;;;;4.00;0.85;;;;;;;29.22;21.42;102388.31;5028450;28;20669;-71
2022/05/28 09:39:35;;;;;;;2.83;0.73;;;;;;;29.34;21.89;102395.63;5032272;28;20033;-71
2022/05/28 09:42:20;;;;;;;4.63;0.90;;;;;;;29.80;21.18;102386.34;5027640;28;20033;-71
2022/05/28 09:44:54;;;;;;;3.15;1.00;;;;;;;30.26;19.64;102385.03;5030115;28;20400;-72
2022/05/28 09:47:20;;;;;;;2.65;0.98;;;;;;;27.91;22.23;102395.41;5027903;28;20048;-71
2022/05/28 09:49:52;;;;;;;4.32;0.90;;;;;;;29.39;21.09;102389.97;5010634;28;20379;-71
2022/05/28 09:54:16;;;;;;;4.55;1.02;;;;;;;31.46;19.97;102376.44;5055045;28;20432;-72
2022/05/28 09:55:19;;;;;;;1.90;0.70;;;;;;;31.72;19.06;102386.25;5029894;28;20033;-72
2022/05/28 09:57:58;;;;;;;7.93;0.68;;;;;;;29.31;19.39;102385.06;5029609;28;20118;-70
2022/05/28 10:00:24;;;;;;;3.47;0.70;;;;;;;27.01;22.04;102393.38;5033228;28;20040;-72
2022/05/28 10:05:54;;;;;;;6.45;0.82;;;;;;;29.92;20.22;102388.22;5030884;28;20060;-72
2022/05/28 10:08:20;;;;;;;6.43;0.80;;;;;;;29.20;21.13;102384.88;5024448;28;20025;-71
2022/05/28 10:10:53;;;;;;;6.85;0.98;;;;;;;29.43;20.56;102380.72;5029537;28;20167;-71
2022/05/28 10:13:23;;;;;;;7.80;1.00;;;;;;;30.14;19.19;102378.66;5029578;28;20116;-70
2022/05/28 10:15:53;;;;;;;3.47;1.00;;;;;;;31.24;19.51;102371.78;5027181;28;20022;-71
2022/05/28 10:18:33;;;;;;;5.88;1.92;;;;;;;29.06;20.91;102383.09;5029165;28;20116;-70
2022/05/28 10:21:07;;;;;;;3.88;1.13;;;;;;;29.35;20.61;102380.38;5034047;28;20032;-71
2022/05/28 10:23:37;;;;;;;6.85;1.05;;;;;;;30.86;20.21;102375.41;5009687;28;20371;-71
2022/05/28 10:26:03;;;;;;;4.38;1.00;;;;;;;31.21;19.03;102377.38;5027787;28;20017;-71
2022/05/28 10:28:44;;;;;;;3.85;1.10;;;;;;;30.82;18.42;102370.31;5027290;28;20559;-71
2022/05/28 10:31:28;;;;;;;3.67;1.10;;;;;;;30.73;19.12;102382.66;5009761;28;20044;-71
2022/05/28 10:33:55;;;;;;;4.75;0.90;;;;;;;28.65;20.67;102378.53;5030639;28;20024;-71
2022/05/28 10:36:25;;;;;;;5.20;0.95;;;;;;;28.35;21.46;102371.38;5035535;28;20037;-72
2022/05/28 10:38:50;;;;;;;4.03;0.95;;;;;;;28.06;21.14;102382.06;5028142;28;20030;-71
2022/05/28 10:41:22;;;;;;;5.03;0.88;;;;;;;27.07;21.81;102376.97;5044960;28;20098;-70
2022/05/28 10:43:49;;;;;;;5.00;0.85;;;;;;;29.55;21.38;102379.91;5027813;28;20048;-71
2022/05/28 10:46:40;;;;;;;3.45;0.70;;;;;;;28.80;21.58;102372.16;5014172;28;20402;-71
2022/05/28 10:49:27;;;;;;;7.43;1.40;;;;;;;27.34;23.67;102385.28;5039886;28;20147;-70
2022/05/28 10:52:23;;;;;;;8.00;0.88;;;;;;;26.47;24.23;102383.72;5060241;28;20039;-70
2022/05/28 10:55:01;;;;;;;7.60;1.08;;;;;;;26.67;25.39;102392.53;5058562;28;20033;-70
2022/05/28 10:57:48;;;;;;;4.53;0.73;;;;;;;27.05;24.03;102390.47;5033230;28;20420;-71
2022/05/28 11:00:17;;;;;;;4.80;1.30;;;;;;;28.18;21.27;102378.63;5034169;28;20068;-71
2022/05/28 11:03:13;;;;;;;3.88;0.75;;;;;;;28.27;20.90;102370.03;5033992;28;20029;-70
2022/05/28 11:05:47;;;;;;;4.72;0.63;;;;;;;28.41;21.33;102376.34;5033650;28;20029;-69
2022/05/28 11:08:21;;;;;;;7.72;1.00;;;;;;;28.61;22.02;102372.44;5033936;28;20405;-71
2022/05/28 11:11:08;;;;;;;4.22;0.80;;;;;;;30.51;20.10;102365.31;5032731;28;20120;-69
2022/05/28 11:14:24;;;;;;;3.22;0.60;;;;;;;30.27;20.06;102366.03;5030022;28;20041;-71
2022/05/28 11:17:10;;;;;;;3.47;0.90;;;;;;;30.26;19.93;102363.47;5028822;28;20045;-71
2022/05/28 11:19:41;;;;;;;5.95;0.90;;;;;;;29.95;20.99;102371.84;5027658;28;20049;-71
2022/05/28 11:22:43;;;;;;;2.53;0.73;;;;;;;28.44;22.93;102377.03;5039789;28;20029;-71
2022/05/28 11:25:45;;;;;;;2.67;0.70;;;;;;;29.55;19.96;102374.53;5029509;28;20425;-71
2022/05/28 11:28:31;;;;;;;3.75;1.20;;;;;;;28.84;21.15;102357.56;5021215;28;20048;-70
2022/05/28 11:31:11;;;;;;;5.68;0.98;;;;;;;26.96;23.36;102364.13;5034578;28;20037;-70
2022/05/28 11:33:40;;;;;;;4.72;1.05;;;;;;;26.59;24.84;102376.84;5021524;28;20025;-71
2022/05/28 11:36:12;;;;;;;2.75;1.25;;;;;;;25.53;24.94;102375.94;5025228;28;20068;-71
2022/05/28 11:38:38;;;;;;;;;;;;;;;27.09;23.93;102361.63;5033238;28;20025;-70
2022/05/28 11:41:41;;;;;;;3.88;0.80;;;;;;;26.96;23.12;102364.13;5033191;28;19915;-70
2022/05/28 11:44:12;;;;;;;4.18;1.10;;;;;;;27.77;23.03;102355.09;5031076;28;20037;-70
2022/05/28 11:46:45;;;;;;;6.30;0.82;;;;;;;26.89;23.65;102358.25;5028708;28;20018;-70